Time;durP1;ratioP1;P1;durP2;ratioP2;P2;SDS_P1;SDS_P2;PMS_P1;PMS_P2;Temp;Humidity;BMP_temperature;BMP_pressure;BME280_temperature;BME280_humidity;BME280_pressure;Samples;Min_cycle;Max_cycle;Signal;HPM_P1;HPM_P2
2021/03/01 00:00:33;;;;;;;23.88;13.18;;;2.90;86.60;;;;;;5072346;28;20415;-75
2021/03/01 00:02:59;;;;;;;20.88;13.05;;;2.90;86.70;;;;;;5054383;28;20098;-75
2021/03/01 00:05:25;;;;;;;25.05;14.25;;;3.00;86.70;;;;;;5054144;28;20484;-75
2021/03/01 00:07:51;;;;;;;23.25;12.82;;;3.00;86.90;;;;;;5054706;28;20032;-75
2021/03/01 00:10:17;;;;;;;26.75;14.23;;;3.10;86.90;;;;;;5054792;28;20127;-75
2021/03/01 00:12:44;;;;;;;24.48;14.20;;;3.10;87.00;;;;;;5073283;28;20025;-75
2021/03/01 00:15:15;;;;;;;27.17;15.10;;;3.10;87.00;;;;;;5054375;28;20029;-75
2021/03/01 00:17:42;;;;;;;25.05;15.55;;;3.20;87.00;;;;;;5055023;28;20053;-75
2021/03/01 00:20:10;;;;;;;23.10;14.20;;;3.20;87.00;;;;;;5055022;28;20033;-75
2021/03/01 00:22:36;;;;;;;27.77;16.00;;;3.30;87.10;;;;;;5072098;28;20032;-75
2021/03/01 00:25:03;;;;;;;25.92;15.25;;;3.30;87.00;;;;;;5054435;28;20024;-75
2021/03/01 00:27:28;;;;;;;28.73;15.60;;;3.30;86.60;;;;;;5054891;28;20032;-75
2021/03/01 00:29:54;;;;;;;25.55;14.85;;;3.40;86.80;;;;;;5053979;28;20021;-75
2021/03/01 00:32:20;;;;;;;26.50;15.48;;;3.40;86.80;;;;;;5054844;28;20143;-77
2021/03/01 00:34:45;;;;;;;26.77;15.65;;;3.40;86.40;;;;;;5072717;28;20017;-75
2021/03/01 00:37:11;;;;;;;25.77;14.55;;;3.40;86.70;;;;;;5072676;28;20067;-75
2021/03/01 00:39:37;;;;;;;23.73;14.38;;;3.40;86.50;;;;;;5071974;28;20036;-75
2021/03/01 00:42:03;;;;;;;24.30;13.95;;;3.40;86.50;;;;;;5054901;28;20124;-75
2021/03/01 00:44:28;;;;;;;22.80;13.27;;;3.40;86.30;;;;;;5068338;28;20425;-75
2021/03/01 00:46:54;;;;;;;20.92;13.07;;;3.40;86.30;;;;;;5072913;28;20025;-74
2021/03/01 00:49:20;;;;;;;24.20;13.95;;;3.40;86.30;;;;;;5053345;28;20021;-79
2021/03/01 00:51:45;;;;;;;22.15;13.38;;;3.40;86.10;;;;;;5072231;28;20394;-76
2021/03/01 00:54:11;;;;;;;21.63;12.65;;;3.40;86.10;;;;;;5054718;28;20036;-73
2021/03/01 00:56:37;;;;;;;20.20;12.00;;;3.40;86.10;;;;;;5072095;28;20433;-76
2021/03/01 00:59:03;;;;;;;24.95;13.43;;;3.40;86.10;;;;;;5071452;28;20029;-75
2021/03/01 01:01:29;;;;;;;21.85;13.13;;;3.40;86.40;;;;;;5054581;28;20036;-75
2021/03/01 01:03:54;;;;;;;23.02;13.05;;;3.40;86.60;;;;;;5054022;28;20379;-75
2021/03/01 01:06:20;;;;;;;23.25;13.15;;;3.40;86.50;;;;;;5054670;28;20028;-74
2021/03/01 01:08:46;;;;;;;21.70;12.98;;;3.40;86.40;;;;;;5054576;28;20037;-73
2021/03/01 01:11:12;;;;;;;24.48;13.57;;;3.50;86.50;;;;;;5053949;28;20036;-74
2021/03/01 01:13:37;;;;;;;22.23;12.95;;;3.40;86.40;;;;;;5086727;28;20107;-74
2021/03/01 01:16:03;;;;;;;21.50;13.13;;;3.40;86.40;;;;;;5083952;28;20117;-74
2021/03/01 01:18:29;;;;;;;20.92;12.52;;;3.40;86.30;;;;;;5089578;28;20541;-74
2021/03/01 01:20:55;;;;;;;21.50;13.25;;;3.40;86.80;;;;;;5082074;28;20071;-82
2021/03/01 01:23:21;;;;;;;23.92;13.82;;;3.40;87.00;;;;;;5065590;28;20032;-74
2021/03/01 01:25:47;;;;;;;20.90;12.48;;;3.40;86.80;;;;;;5075265;28;20024;-75
2021/03/01 01:28:12;;;;;;;21.15;13.45;;;3.50;87.70;;;;;;5077701;28;20028;-74
2021/03/01 01:30:38;;;;;;;23.05;13.57;;;3.50;87.00;;;;;;5075232;28;20467;-74
2021/03/01 01:33:04;;;;;;;23.70;13.73;;;3.50;87.00;;;;;;5070291;28;20033;-74
2021/03/01 01:35:30;;;;;;;24.02;14.20;;;3.50;86.90;;;;;;5059623;28;20025;-75
2021/03/01 01:37:56;;;;;;;21.98;13.63;;;3.50;86.90;;;;;;5079154;28;20027;-75
2021/03/01 01:40:22;;;;;;;24.02;14.35;;;3.50;86.70;;;;;;5059517;28;20474;-74
2021/03/01 01:42:52;;;;;;;23.27;13.98;;;3.50;86.80;;;;;;5057740;28;20029;-74
2021/03/01 01:45:23;;;;;;;25.23;13.43;;;3.50;86.90;;;;;;5060130;28;20379;-74
2021/03/01 01:47:50;;;;;;;21.98;12.98;;;3.50;87.00;;;;;;5082949;28;20024;-74
2021/03/01 01:50:21;;;;;;;26.52;13.45;;;3.50;87.00;;;;;;5077327;28;20047;-74
2021/03/01 01:52:49;;;;;;;25.08;13.80;;;3.40;87.00;;;;;;5077584;28;20135;-74
2021/03/01 01:55:16;;;;;;;27.35;14.45;;;3.50;87.00;;;;;;5080110;28;20455;-74
2021/03/01 01:57:43;;;;;;;21.30;12.63;;;3.40;86.90;;;;;;5090389;28;20518;-74
2021/03/01 02:00:28;;;;;;;19.17;11.38;;;3.40;86.90;;;;;;5074762;28;20052;-76
2021/03/01 02:03:27;;;;;;;19.23;11.23;;;3.40;86.80;;;;;;5074832;28;20063;-73
2021/03/01 02:05:57;;;;;;;18.17;11.43;;;3.30;86.90;;;;;;5029433;28;20081;-74
2021/03/01 02:08:30;;;;;;;21.52;11.80;;;3.40;87.20;;;;;;5070485;28;20029;-74
2021/03/01 02:11:20;;;;;;;26.25;16.02;;;3.40;87.30;;;;;;5062750;28;20090;-75
2021/03/01 02:14:03;;;;;;;19.80;11.07;;;3.40;87.30;;;;;;5077092;28;20399;-74
2021/03/01 02:16:33;;;;;;;20.42;11.05;;;3.40;87.30;;;;;;5095708;28;20039;-73
2021/03/01 02:18:59;;;;;;;17.20;10.63;;;3.40;87.30;;;;;;5062782;28;20024;-74
2021/03/01 02:21:25;;;;;;;19.38;11.48;;;3.40;87.30;;;;;;5084577;28;20032;-73
2021/03/01 02:23:51;;;;;;;18.02;11.15;;;3.40;87.40;;;;;;5085809;28;20451;-79
2021/03/01 02:26:30;;;;;;;19.45;11.52;;;3.40;87.40;;;;;;5076764;28;20485;-76
2021/03/01 02:29:04;;;;;;;18.77;12.13;;;3.40;87.30;;;;;;5081119;28;20035;-79
2021/03/01 02:31:32;;;;;;;19.27;11.52;;;3.40;87.20;;;;;;5061602;28;20032;-80
2021/03/01 02:34:00;;;;;;;21.77;12.27;;;3.30;87.30;;;;;;5095138;28;20032;-80
2021/03/01 02:36:53;;;;;;;22.85;12.48;;;3.30;87.30;;;;;;5078820;28;20028;-80
2021/03/01 02:39:22;;;;;;;28.02;15.23;;;3.30;87.30;;;;;;5068092;28;20041;-80
2021/03/01 02:41:50;;;;;;;26.00;14.70;;;3.30;87.40;;;;;;5083198;28;20024;-80
2021/03/01 02:44:17;;;;;;;24.13;13.25;;;3.30;87.30;;;;;;5068404;28;20094;-80
2021/03/01 02:46:45;;;;;;;20.15;13.05;;;3.20;87.50;;;;;;5060526;28;20024;-79
2021/03/01 02:49:12;;;;;;;20.85;12.63;;;3.20;87.60;;;;;;5065528;28;20520;-80
2021/03/01 02:51:40;;;;;;;23.65;12.23;;;3.20;87.70;;;;;;5058868;28;20059;-80
2021/03/01 02:54:07;;;;;;;20.38;11.80;;;3.20;88.30;;;;;;5057382;28;20022;-81
2021/03/01 02:56:33;;;;;;;18.60;11.90;;;3.20;88.00;;;;;;5058307;28;20111;-80
2021/03/01 02:59:01;;;;;;;17.95;10.98;;;3.20;88.00;;;;;;5064604;28;20115;-81
2021/03/01 03:01:28;;;;;;;19.92;11.93;;;3.20;87.80;;;;;;5059555;28;20025;-80
2021/03/01 03:03:56;;;;;;;17.48;10.75;;;3.20;88.10;;;;;;5058857;28;20119;-82
2021/03/01 03:06:24;;;;;;;18.17;10.98;;;3.20;88.20;;;;;;5082690;28;20099;-79
2021/03/01 03:08:52;;;;;;;17.35;10.57;;;3.20;88.20;;;;;;5068008;28;20064;-81
2021/03/01 03:11:19;;;;;;;19.48;11.57;;;3.10;88.10;;;;;;5083141;28;20033;-81
2021/03/01 03:13:49;;;;;;;17.13;10.52;;;3.10;88.10;;;;;;5062084;28;20031;-80
2021/03/01 03:16:17;;;;;;;16.60;10.60;;;3.10;88.20;;;;;;5076129;28;20052;-80
2021/03/01 03:18:46;;;;;;;18.42;11.63;;;3.00;88.20;;;;;;5062327;28;20375;-80
2021/03/01 03:21:12;;;;;;;19.13;11.85;;;3.00;88.40;;;;;;5064157;28;20603;-81
2021/03/01 03:23:38;;;;;;;20.50;12.10;;;3.00;88.60;;;;;;5073877;28;20028;-79
2021/03/01 03:26:04;;;;;;;21.25;12.30;;;3.00;88.50;;;;;;5059428;28;20035;-79
2021/03/01 03:28:30;;;;;;;20.73;12.13;;;3.00;88.70;;;;;;5065931;28;20028;-79
2021/03/01 03:30:55;;;;;;;22.27;12.75;;;3.00;88.70;;;;;;5078091;28;20532;-80
2021/03/01 03:33:21;;;;;;;23.70;12.57;;;3.00;88.90;;;;;;5093197;28;20031;-79
2021/03/01 03:35:47;;;;;;;23.23;12.80;;;3.00;89.00;;;;;;5078240;28;20078;-79
2021/03/01 03:38:33;;;;;;;21.38;12.15;;;3.00;89.10;;;;;;5082514;28;20040;-79
2021/03/01 03:41:01;;;;;;;21.35;11.65;;;3.00;89.20;;;;;;5066924;28;20466;-79
2021/03/01 03:43:28;;;;;;;20.27;11.63;;;3.00;89.10;;;;;;5059249;28;20025;-79
2021/03/01 03:45:57;;;;;;;21.27;12.10;;;3.00;89.20;;;;;;5078599;28;20027;-79
2021/03/01 03:48:25;;;;;;;23.00;11.32;;;3.00;89.40;;;;;;5061177;28;20054;-79
2021/03/01 03:50:57;;;;;;;20.67;11.82;;;3.00;89.50;;;;;;5077322;28;20447;-79
2021/03/01 03:53:27;;;;;;;20.88;11.80;;;3.00;89.50;;;;;;5069677;28;20048;-78
2021/03/01 03:55:56;;;;;;;19.02;10.50;;;3.00;89.50;;;;;;5055967;28;20060;-78
2021/03/01 03:58:28;;;;;;;23.40;12.25;;;3.10;89.60;;;;;;5063327;28;20078;-79
2021/03/01 04:00:56;;;;;;;21.83;11.27;;;3.10;89.50;;;;;;5058534;28;20028;-76
2021/03/01 04:03:23;;;;;;;24.60;12.75;;;3.10;89.60;;;;;;5055583;28;20074;-76
2021/03/01 04:05:51;;;;;;;24.55;13.48;;;3.10;89.50;;;;;;5081572;28;20437;-77
2021/03/01 04:08:19;;;;;;;25.45;13.75;;;3.10;89.60;;;;;;5085055;28;20089;-79
2021/03/01 04:10:49;;;;;;;25.38;13.05;;;3.10;89.50;;;;;;5065484;28;20067;-77
2021/03/01 04:13:16;;;;;;;26.77;13.65;;;3.00;89.50;;;;;;5061794;28;20230;-77
2021/03/01 04:15:46;;;;;;;27.70;14.27;;;3.00;89.60;;;;;;5069123;28;20025;-77
2021/03/01 04:18:22;;;;;;;23.23;13.00;;;3.00;89.80;;;;;;5055724;28;20119;-77
2021/03/01 04:20:49;;;;;;;28.92;13.30;;;2.90;89.80;;;;;;5065504;28;20032;-78
2021/03/01 04:23:17;;;;;;;28.05;14.48;;;3.00;90.00;;;;;;5092163;28;20024;-79
2021/03/01 04:25:48;;;;;;;29.45;13.38;;;3.00;90.00;;;;;;5080423;28;20024;-77
2021/03/01 04:28:15;;;;;;;33.00;14.85;;;3.00;90.10;;;;;;5060657;28;20111;-76
2021/03/01 04:30:42;;;;;;;30.85;14.10;;;3.00;90.10;;;;;;5065226;28;20063;-76
2021/03/01 04:33:10;;;;;;;30.58;14.30;;;3.00;90.10;;;;;;5086122;28;20028;-76
2021/03/01 04:35:37;;;;;;;32.60;14.73;;;2.90;90.10;;;;;;5065508;28;20057;-76
2021/03/01 04:38:03;;;;;;;31.92;15.00;;;3.00;90.20;;;;;;5078352;28;20024;-76
2021/03/01 04:40:28;;;;;;;31.25;15.32;;;3.00;90.20;;;;;;5086848;28;20036;-76
2021/03/01 04:42:55;;;;;;;34.38;14.82;;;3.00;90.20;;;;;;5069314;28;20103;-76
2021/03/01 04:45:22;;;;;;;30.90;14.75;;;3.00;90.20;;;;;;5080632;28;20107;-76
2021/03/01 04:47:49;;;;;;;34.63;14.63;;;3.00;90.30;;;;;;5091702;28;20085;-76
2021/03/01 04:50:18;;;;;;;33.60;15.43;;;3.00;90.30;;;;;;5059480;28;20058;-77
2021/03/01 04:52:45;;;;;;;34.15;15.27;;;3.00;90.10;;;;;;5070195;28;20072;-74
2021/03/01 04:55:13;;;;;;;33.15;15.85;;;3.00;90.30;;;;;;5055678;28;20080;-76
2021/03/01 04:57:40;;;;;;;34.75;15.50;;;3.10;90.40;;;;;;5054089;28;20111;-75
2021/03/01 05:00:08;;;;;;;33.83;16.23;;;3.10;90.30;;;;;;5071815;28;20032;-77
2021/03/01 05:02:37;;;;;;;34.38;15.82;;;3.10;90.30;;;;;;5054571;28;20455;-76
2021/03/01 05:05:04;;;;;;;32.17;15.23;;;3.10;90.30;;;;;;5059162;28;20037;-76
2021/03/01 05:07:31;;;;;;;31.27;15.90;;;3.10;90.30;;;;;;5065642;28;20067;-76
2021/03/01 05:09:57;;;;;;;33.20;16.23;;;3.10;90.30;;;;;;5057909;28;20060;-75
2021/03/01 05:12:23;;;;;;;33.10;15.50;;;3.10;90.30;;;;;;5057118;28;20037;-76
2021/03/01 05:14:48;;;;;;;32.38;15.68;;;3.10;90.40;;;;;;5076246;28;20055;-75
2021/03/01 05:17:14;;;;;;;32.08;15.40;;;3.10;90.30;;;;;;5075489;28;20025;-76
2021/03/01 05:19:40;;;;;;;33.22;15.40;;;3.10;90.30;;;;;;5070023;28;20518;-75
2021/03/01 05:22:06;;;;;;;28.30;13.30;;;3.10;90.30;;;;;;5080531;28;20036;-75
2021/03/01 05:24:31;;;;;;;28.95;13.93;;;3.10;90.40;;;;;;5093662;28;20028;-75
2021/03/01 05:26:58;;;;;;;32.13;15.15;;;3.20;90.40;;;;;;5077583;28;20035;-77
2021/03/01 05:29:24;;;;;;;30.48;14.68;;;3.20;90.30;;;;;;5062016;28;20116;-77
2021/03/01 05:31:50;;;;;;;33.10;14.75;;;3.20;90.40;;;;;;5057232;28;20123;-76
2021/03/01 05:34:16;;;;;;;33.00;14.98;;;3.20;90.40;;;;;;5076235;28;20037;-76
2021/03/01 05:36:43;;;;;;;39.28;15.80;;;3.20;90.40;;;;;;5075907;28;20025;-76
2021/03/01 05:39:09;;;;;;;41.90;18.77;;;3.20;90.30;;;;;;5057683;28;20063;-75
2021/03/01 05:41:38;;;;;;;38.35;16.52;;;3.20;90.30;;;;;;5094062;28;20363;-74
2021/03/01 05:44:05;;;;;;;32.13;16.40;;;3.20;90.40;;;;;;5060760;28;20029;-81
2021/03/01 05:46:34;;;;;;;37.45;16.58;;;3.30;90.40;;;;;;5077978;28;20056;-81
2021/03/01 05:49:01;;;;;;;36.92;18.40;;;3.30;90.40;;;;;;5057865;28;20024;-71
2021/03/01 05:51:29;;;;;;;39.83;18.60;;;3.30;90.40;;;;;;5056940;28;20052;-77
2021/03/01 05:53:59;;;;;;;38.47;16.80;;;3.30;90.50;;;;;;5075270;28;20063;-75
2021/03/01 05:56:25;;;;;;;28.58;14.48;;;3.40;90.50;;;;;;5072006;28;20043;-80
2021/03/01 05:58:51;;;;;;;23.52;12.52;;;3.40;90.40;;;;;;5060721;28;20020;-76
2021/03/01 06:01:18;;;;;;;25.15;11.65;;;3.50;90.30;;;;;;5057226;28;20510;-80
2021/03/01 06:03:44;;;;;;;24.05;11.43;;;3.50;90.20;;;;;;5056623;28;20024;-73
2021/03/01 06:06:12;;;;;;;19.38;10.25;;;3.50;90.20;;;;;;5081472;28;20039;-73
2021/03/01 06:08:39;;;;;;;22.67;11.20;;;3.50;90.10;;;;;;5089774;28;20109;-74
2021/03/01 06:11:07;;;;;;;22.02;10.45;;;3.50;90.20;;;;;;5056689;28;20098;-74
2021/03/01 06:13:37;;;;;;;26.52;12.65;;;3.50;90.20;;;;;;5064165;28;20406;-73
2021/03/01 06:16:05;;;;;;;24.00;13.25;;;3.50;90.20;;;;;;5053221;28;20085;-73
2021/03/01 06:18:31;;;;;;;27.35;12.95;;;3.60;90.20;;;;;;5051797;28;20028;-73
2021/03/01 06:21:16;;;;;;;20.33;10.82;;;3.60;90.20;;;;;;5068006;28;20067;-74
2021/03/01 06:23:43;;;;;;;22.13;12.20;;;3.70;90.20;;;;;;5070036;28;20513;-72
2021/03/01 06:26:27;;;;;;;28.63;13.18;;;3.70;90.10;;;;;;5069693;28;20070;-77
2021/03/01 06:29:02;;;;;;;24.15;11.40;;;3.70;90.10;;;;;;5061441;28;20025;-73
2021/03/01 06:31:44;;;;;;;21.00;11.63;;;3.80;90.00;;;;;;5072346;28;20470;-78
2021/03/01 06:34:25;;;;;;;22.02;10.18;;;3.80;90.10;;;;;;5063176;28;20054;-76
2021/03/01 06:37:11;;;;;;;18.13;9.95;;;3.90;90.00;;;;;;5071625;28;20382;-74
2021/03/01 06:39:45;;;;;;;21.30;10.77;;;3.90;90.00;;;;;;5056185;28;20029;-66
2021/03/01 06:42:17;;;;;;;21.05;10.98;;;3.90;90.00;;;;;;5063586;28;20151;-72
2021/03/01 06:44:47;;;;;;;20.77;11.50;;;4.00;90.00;;;;;;5074548;28;20421;-72
2021/03/01 06:47:13;;;;;;;20.05;10.50;;;4.10;90.00;;;;;;5063789;28;20489;-72
2021/03/01 06:49:41;;;;;;;23.65;11.80;;;4.10;89.90;;;;;;5051543;28;20380;-74
2021/03/01 06:52:07;;;;;;;19.52;10.73;;;4.20;89.70;;;;;;5064386;28;20060;-71
2021/03/01 06:54:33;;;;;;;20.98;11.55;;;4.20;89.40;;;;;;5082606;28;20159;-73
2021/03/01 06:56:59;;;;;;;19.20;10.90;;;4.30;89.20;;;;;;5053700;28;20111;-72
2021/03/01 06:59:25;;;;;;;21.83;11.95;;;4.30;89.10;;;;;;5065158;28;20024;-72
2021/03/01 07:01:52;;;;;;;21.73;10.63;;;4.40;88.90;;;;;;5088262;28;20162;-72
2021/03/01 07:04:32;;;;;;;22.27;11.90;;;4.40;88.90;;;;;;5054731;28;20032;-72
2021/03/01 07:07:02;;;;;;;22.42;12.02;;;4.50;88.50;;;;;;5075403;28;20398;-74
2021/03/01 07:09:30;;;;;;;18.55;10.68;;;4.50;88.50;;;;;;5077657;28;20021;-73
2021/03/01 07:11:56;;;;;;;21.15;10.75;;;4.50;88.20;;;;;;5067777;28;20036;-73
2021/03/01 07:14:27;;;;;;;18.65;9.93;;;4.50;87.70;;;;;;5071221;28;20028;-73
2021/03/01 07:16:55;;;;;;;18.77;10.35;;;4.50;87.50;;;;;;5058860;28;20024;-72
2021/03/01 07:19:24;;;;;;;21.67;10.93;;;4.50;87.40;;;;;;5088990;28;20013;-72
2021/03/01 07:21:58;;;;;;;19.20;10.65;;;4.50;87.60;;;;;;5075427;28;20024;-74
2021/03/01 07:24:25;;;;;;;18.98;10.77;;;4.60;87.70;;;;;;5075203;28;20432;-72
2021/03/01 07:26:54;;;;;;;19.88;10.05;;;4.60;87.40;;;;;;5076011;28;20107;-73
2021/03/01 07:29:21;;;;;;;16.33;10.15;;;4.60;87.00;;;;;;5093906;28;20467;-74
2021/03/01 07:32:01;;;;;;;17.90;9.63;;;4.60;87.00;;;;;;5093618;28;20020;-73
2021/03/01 07:34:27;;;;;;;18.90;10.32;;;4.60;87.10;;;;;;5093769;28;20378;-74
2021/03/01 07:36:54;;;;;;;19.00;9.90;;;4.50;86.20;;;;;;5094172;28;20458;-74
2021/03/01 07:39:20;;;;;;;18.70;10.00;;;4.50;86.10;;;;;;5093778;28;20055;-73
2021/03/01 07:41:47;;;;;;;15.98;9.60;;;4.40;86.30;;;;;;5093666;28;20035;-72
2021/03/01 07:44:13;;;;;;;15.88;9.60;;;4.40;86.20;;;;;;5075742;28;20537;-72
2021/03/01 07:46:42;;;;;;;21.70;10.38;;;4.40;86.60;;;;;;5075632;28;20023;-72
2021/03/01 07:49:12;;;;;;;17.95;10.43;;;4.50;86.60;;;;;;5075187;28;20024;-73
2021/03/01 07:51:41;;;;;;;17.25;9.45;;;4.50;86.30;;;;;;5075000;28;20091;-74
2021/03/01 07:54:07;;;;;;;18.85;9.57;;;4.50;86.10;;;;;;5075904;28;20028;-73
2021/03/01 07:56:39;;;;;;;17.38;10.07;;;4.40;85.70;;;;;;5075455;28;20030;-73
2021/03/01 07:59:09;;;;;;;18.35;10.20;;;4.40;85.80;;;;;;5075326;28;20020;-73
2021/03/01 08:01:35;;;;;;;16.70;10.15;;;4.40;85.90;;;;;;5093361;28;20063;-74
2021/03/01 08:04:02;;;;;;;15.88;9.15;;;4.40;85.80;;;;;;5075073;28;20027;-72
2021/03/01 08:06:54;;;;;;;18.45;9.88;;;4.40;85.90;;;;;;5075520;28;20024;-73
2021/03/01 08:09:40;;;;;;;23.15;10.40;;;4.40;86.00;;;;;;5070959;28;20525;-73
2021/03/01 08:12:06;;;;;;;18.85;9.80;;;4.50;86.40;;;;;;5093111;28;20039;-73
2021/03/01 08:14:50;;;;;;;23.90;11.90;;;4.50;86.20;;;;;;5074783;28;20036;-73
2021/03/01 08:17:24;;;;;;;16.42;8.82;;;4.60;85.90;;;;;;5093243;28;20051;-73
2021/03/01 08:19:51;;;;;;;17.30;9.10;;;4.60;85.50;;;;;;5093139;28;20477;-73
2021/03/01 08:22:17;;;;;;;15.85;9.30;;;4.60;85.20;;;;;;5093208;28;20078;-73
2021/03/01 08:24:54;;;;;;;17.33;9.95;;;4.60;84.90;;;;;;5093083;28;20471;-73
2021/03/01 08:27:26;;;;;;;19.98;9.77;;;4.60;84.90;;;;;;5080179;28;20482;-72
2021/03/01 08:30:23;;;;;;;17.75;10.52;;;4.60;84.90;;;;;;5074802;28;20052;-74
2021/03/01 08:33:08;;;;;;;19.15;11.43;;;4.60;84.90;;;;;;5093417;28;20086;-72
2021/03/01 08:36:00;;;;;;;31.88;16.08;;;4.70;84.90;;;;;;5075025;28;20101;-73
2021/03/01 08:38:47;;;;;;;19.27;10.52;;;4.80;84.90;;;;;;5074720;28;20024;-73
2021/03/01 08:41:30;;;;;;;16.75;9.40;;;4.80;84.40;;;;;;5078554;28;20068;-73
2021/03/01 08:43:58;;;;;;;12.70;8.20;;;4.80;83.90;;;;;;5077041;28;20035;-73
2021/03/01 08:46:24;;;;;;;12.13;7.82;;;4.80;83.80;;;;;;5078820;28;20027;-71
2021/03/01 08:48:52;;;;;;;14.63;8.45;;;4.80;83.60;;;;;;5078965;28;20073;-73
2021/03/01 08:51:19;;;;;;;12.95;8.23;;;4.90;83.70;;;;;;5078332;28;20510;-74
2021/03/01 08:53:45;;;;;;;11.70;8.20;;;4.90;83.40;;;;;;5097071;28;20095;-74
2021/03/01 08:56:22;;;;;;;13.43;8.57;;;4.90;83.00;;;;;;5078824;28;20077;-73
2021/03/01 08:58:48;;;;;;;13.10;7.32;;;5.00;83.30;;;;;;5079254;28;20028;-73
2021/03/01 09:01:14;;;;;;;11.13;7.55;;;5.00;82.80;;;;;;5078517;28;20028;-72
2021/03/01 09:03:45;;;;;;;11.90;7.30;;;5.00;82.60;;;;;;5078751;28;20024;-72
2021/03/01 09:06:19;;;;;;;11.82;7.07;;;5.10;82.50;;;;;;5078822;28;20024;-72
2021/03/01 09:08:47;;;;;;;11.25;6.85;;;5.10;82.30;;;;;;5096907;28;20028;-74
2021/03/01 09:11:19;;;;;;;13.50;7.95;;;5.10;82.20;;;;;;5096460;28;20032;-73
2021/03/01 09:13:49;;;;;;;14.10;8.57;;;5.20;82.00;;;;;;5050301;28;20405;-72
2021/03/01 09:16:17;;;;;;;15.68;8.63;;;5.30;81.80;;;;;;5096777;28;20030;-73
2021/03/01 09:18:48;;;;;;;11.60;7.07;;;5.40;82.00;;;;;;5078665;28;20028;-72
2021/03/01 09:21:16;;;;;;;11.13;7.88;;;5.40;81.60;;;;;;5096467;28;20431;-73
2021/03/01 09:23:56;;;;;;;12.77;8.13;;;5.50;81.00;;;;;;5078465;28;20036;-73
2021/03/01 09:26:36;;;;;;;14.88;8.25;;;5.50;81.00;;;;;;5096442;28;20071;-73
2021/03/01 09:29:06;;;;;;;11.73;7.22;;;5.60;81.00;;;;;;5052239;28;20395;-73
2021/03/01 09:31:46;;;;;;;11.85;7.30;;;5.60;80.20;;;;;;5076961;28;20099;-73
2021/03/01 09:34:14;;;;;;;14.70;8.32;;;5.60;80.30;;;;;;5078366;28;20513;-74
2021/03/01 09:36:43;;;;;;;14.40;9.07;;;5.60;80.20;;;;;;5077903;28;20016;-73
2021/03/01 09:39:09;;;;;;;13.07;8.25;;;5.70;80.00;;;;;;5083646;28;20025;-73
2021/03/01 09:41:37;;;;;;;13.98;8.55;;;5.70;79.80;;;;;;5090177;28;20429;-72
2021/03/01 09:44:04;;;;;;;11.88;7.80;;;5.80;79.30;;;;;;5086604;28;20017;-73
2021/03/01 09:46:31;;;;;;;11.98;7.72;;;5.80;79.30;;;;;;5096022;28;20032;-73
2021/03/01 09:49:01;;;;;;;10.60;6.95;;;5.90;79.00;;;;;;5077780;28;20427;-73
2021/03/01 09:51:28;;;;;;;10.18;6.32;;;5.90;78.90;;;;;;5081605;28;20371;-73
2021/03/01 09:54:05;;;;;;;9.88;5.97;;;6.10;78.80;;;;;;5077732;28;20020;-73
2021/03/01 09:56:41;;;;;;;12.35;7.45;;;6.20;78.50;;;;;;5076629;28;20020;-73
2021/03/01 09:59:06;;;;;;;;;;;6.30;78.00;;;;;;5096440;28;20466;-72
2021/03/01 10:01:32;;;;;;;13.63;7.78;;;6.50;78.90;;;;;;5077423;28;19950;-73
2021/03/01 10:03:58;;;;;;;11.68;7.43;;;6.60;78.10;;;;;;5064448;28;20028;-73
2021/03/01 10:06:42;;;;;;;11.48;7.05;;;6.70;78.00;;;;;;5095495;28;20024;-73
2021/03/01 10:09:08;;;;;;;13.35;7.53;;;6.80;77.20;;;;;;5069423;28;20027;-73
2021/03/01 10:11:35;;;;;;;9.00;6.30;;;6.90;76.60;;;;;;5077491;28;20047;-73
2021/03/01 10:14:05;;;;;;;8.90;5.95;;;7.00;75.80;;;;;;5077615;28;20058;-73
2021/03/01 10:16:39;;;;;;;9.55;6.35;;;7.10;75.00;;;;;;5077714;28;20385;-73
2021/03/01 10:19:15;;;;;;;9.15;5.90;;;7.10;74.40;;;;;;5076799;28;20027;-72
2021/03/01 10:21:42;;;;;;;10.13;6.50;;;7.10;74.10;;;;;;5077363;28;20024;-73
2021/03/01 10:24:12;;;;;;;11.73;6.28;;;7.20;74.10;;;;;;5077112;28;20028;-74
2021/03/01 10:27:04;;;;;;;9.20;6.25;;;7.20;73.00;;;;;;5077160;28;20027;-73
2021/03/01 10:29:35;;;;;;;8.93;5.30;;;7.20;72.80;;;;;;5095153;28;20052;-73
2021/03/01 10:32:02;;;;;;;7.93;5.85;;;7.20;72.30;;;;;;5095104;28;20024;-74
2021/03/01 10:34:33;;;;;;;10.88;6.03;;;7.20;72.10;;;;;;5095184;28;20035;-74
2021/03/01 10:36:59;;;;;;;10.32;6.35;;;7.30;72.20;;;;;;5095209;28;20027;-73
2021/03/01 10:39:35;;;;;;;9.43;6.90;;;7.40;72.00;;;;;;5076984;28;20111;-73
2021/03/01 10:42:13;;;;;;;10.25;7.13;;;7.60;72.10;;;;;;5077154;28;20491;-73
2021/03/01 10:44:41;;;;;;;10.85;7.70;;;7.90;72.20;;;;;;5076506;28;20498;-74
2021/03/01 10:47:21;;;;;;;11.63;7.30;;;8.20;71.90;;;;;;5076669;28;20045;-73
2021/03/01 10:49:53;;;;;;;11.07;7.65;;;8.30;70.80;;;;;;5076351;28;20110;-73
2021/03/01 10:52:20;;;;;;;11.43;6.82;;;8.30;69.50;;;;;;5076437;28;20123;-73
2021/03/01 10:54:47;;;;;;;12.30;7.15;;;8.20;69.20;;;;;;5076320;28;20020;-73
2021/03/01 10:57:13;;;;;;;12.30;7.30;;;8.20;69.20;;;;;;5076527;28;20367;-73
2021/03/01 10:59:39;;;;;;;12.18;7.32;;;8.30;69.00;;;;;;5094742;28;20382;-72
2021/03/01 11:02:06;;;;;;;12.25;7.35;;;8.30;69.30;;;;;;5076277;28;20463;-73
2021/03/01 11:04:33;;;;;;;10.45;7.53;;;8.40;69.10;;;;;;5076310;28;20056;-73
2021/03/01 11:06:59;;;;;;;10.52;7.38;;;8.30;68.60;;;;;;5093914;28;20462;-75
2021/03/01 11:09:25;;;;;;;11.85;7.63;;;8.10;68.10;;;;;;5076290;28;20085;-74
2021/03/01 11:11:52;;;;;;;13.70;9.48;;;8.00;68.50;;;;;;5094113;28;20114;-74
2021/03/01 11:14:19;;;;;;;10.60;7.28;;;7.90;68.60;;;;;;5076267;28;20043;-74
2021/03/01 11:16:45;;;;;;;11.02;6.80;;;7.80;68.40;;;;;;5094301;28;20052;-73
2021/03/01 11:19:13;;;;;;;12.02;7.20;;;7.70;68.50;;;;;;5075462;28;20024;-73
2021/03/01 11:21:40;;;;;;;12.65;7.40;;;7.60;68.50;;;;;;5076168;28;20375;-74
2021/03/01 11:24:07;;;;;;;12.10;7.70;;;7.50;68.80;;;;;;5094013;28;20024;-74
2021/03/01 11:26:33;;;;;;;12.82;7.75;;;7.50;69.30;;;;;;5076147;28;20455;-73
2021/03/01 11:28:59;;;;;;;10.70;6.97;;;7.60;69.70;;;;;;5075840;28;20028;-74
2021/03/01 11:31:26;;;;;;;9.32;6.13;;;7.60;69.70;;;;;;5093788;28;20051;-74
2021/03/01 11:33:52;;;;;;;13.32;7.05;;;7.80;69.80;;;;;;5075867;28;20032;-73
2021/03/01 11:36:18;;;;;;;8.98;6.07;;;8.00;69.70;;;;;;5093688;28;20067;-74
2021/03/01 11:38:44;;;;;;;9.38;6.53;;;8.20;69.00;;;;;;5093798;28;20031;-73
2021/03/01 11:41:14;;;;;;;9.70;6.28;;;8.30;68.70;;;;;;5093597;28;20028;-74
2021/03/01 11:43:42;;;;;;;9.50;5.82;;;8.50;67.90;;;;;;5094705;28;20028;-73
2021/03/01 11:46:07;;;;;;;8.93;6.40;;;8.60;67.40;;;;;;5093896;28;20032;-73
2021/03/01 11:48:33;;;;;;;10.10;6.20;;;8.70;67.00;;;;;;5093518;28;20051;-73
2021/03/01 11:50:59;;;;;;;11.80;7.05;;;8.90;66.90;;;;;;5074868;28;20119;-73
2021/03/01 11:53:25;;;;;;;9.00;5.90;;;9.10;66.30;;;;;;5090039;28;20048;-73
2021/03/01 11:55:50;;;;;;;9.38;6.10;;;9.20;65.90;;;;;;5065203;28;20017;-72
2021/03/01 11:58:16;;;;;;;10.13;6.78;;;9.10;65.20;;;;;;5075443;28;20078;-72
2021/03/01 12:00:42;;;;;;;10.18;6.63;;;9.10;65.10;;;;;;5075881;28;20386;-73
2021/03/01 12:03:10;;;;;;;10.15;6.68;;;9.00;64.70;;;;;;5075030;28;20035;-73
2021/03/01 12:05:38;;;;;;;9.77;6.80;;;8.90;64.20;;;;;;5075115;28;20154;-74
2021/03/01 12:08:04;;;;;;;9.25;5.80;;;8.70;64.40;;;;;;5075466;28;20024;-73
2021/03/01 12:10:31;;;;;;;11.13;5.88;;;8.60;64.50;;;;;;5093363;28;20108;-73
2021/03/01 12:12:57;;;;;;;8.82;5.55;;;8.50;64.60;;;;;;5093182;28;20474;-73
2021/03/01 12:15:23;;;;;;;9.43;6.05;;;8.70;64.90;;;;;;5093344;28;20122;-73
2021/03/01 12:17:48;;;;;;;9.98;5.88;;;8.60;64.00;;;;;;5074588;28;20039;-73
2021/03/01 12:20:14;;;;;;;7.63;5.50;;;8.40;64.00;;;;;;5075027;28;20466;-74
2021/03/01 12:22:40;;;;;;;10.02;5.70;;;8.20;63.80;;;;;;5075108;28;20115;-73
2021/03/01 12:25:06;;;;;;;9.07;5.40;;;7.90;63.60;;;;;;5093277;28;20016;-73
2021/03/01 12:27:32;;;;;;;9.73;6.22;;;7.70;63.80;;;;;;5092880;28;20457;-73
2021/03/01 12:29:58;;;;;;;10.18;6.18;;;7.40;63.90;;;;;;5075229;28;20024;-74
2021/03/01 12:32:24;;;;;;;9.93;6.22;;;7.20;64.10;;;;;;5093251;28;20036;-73
2021/03/01 12:34:50;;;;;;;10.80;6.45;;;7.10;64.40;;;;;;5074464;28;20063;-73
2021/03/01 12:37:16;;;;;;;10.38;6.38;;;6.90;65.10;;;;;;5092970;28;20028;-73
2021/03/01 12:39:43;;;;;;;10.45;6.40;;;7.10;66.80;;;;;;5074822;28;20034;-75
2021/03/01 12:42:09;;;;;;;9.35;6.60;;;7.60;66.90;;;;;;5066192;28;20033;-74
2021/03/01 12:44:35;;;;;;;13.38;7.25;;;8.00;66.40;;;;;;5069859;28;20025;-74
2021/03/01 12:47:02;;;;;;;10.90;6.93;;;8.40;66.40;;;;;;5074429;28;20489;-74
2021/03/01 12:49:28;;;;;;;10.00;6.72;;;8.70;65.70;;;;;;5092718;28;20110;-73